createdAt,value
2018-06-24T00:01:05.589Z,84.70
2018-06-24T00:03:33.808Z,85.00
2018-06-24T00:06:01.992Z,85.20
2018-06-24T00:08:30.229Z,85.20
2018-06-24T00:12:01.731Z,85.20
2018-06-24T00:14:29.924Z,85.00
2018-06-24T00:16:58.136Z,84.70
2018-06-24T00:19:26.392Z,84.90
2018-06-24T00:21:54.600Z,85.00
2018-06-24T00:24:22.789Z,85.20
2018-06-24T00:26:51.032Z,85.30
2018-06-24T00:29:19.260Z,85.40
2018-06-24T00:31:47.473Z,85.50
2018-06-24T00:34:15.677Z,85.90
2018-06-24T00:36:43.879Z,86.20
2018-06-24T00:39:12.098Z,86.60
2018-06-24T00:41:40.296Z,86.80
2018-06-24T00:44:08.559Z,86.90
2018-06-24T00:49:04.721Z,86.90
2018-06-24T00:51:32.951Z,86.80
2018-06-24T00:54:01.161Z,86.80
2018-06-24T00:56:29.365Z,86.80
2018-06-24T01:01:25.560Z,87.20
2018-06-24T01:03:53.803Z,87.30
2018-06-24T01:06:22.033Z,87.60
2018-06-24T01:08:50.349Z,87.70
2018-06-24T01:11:18.784Z,87.80
2018-06-24T01:13:47.004Z,87.90
2018-06-24T01:16:15.216Z,87.80
2018-06-24T01:18:43.700Z,88.00
2018-06-24T01:21:11.900Z,88.10
2018-06-24T01:23:40.128Z,88.30
2018-06-24T01:26:08.356Z,88.60
2018-06-24T01:28:36.588Z,89.00
2018-06-24T01:31:04.921Z,89.30
2018-06-24T01:33:33.120Z,89.70
2018-06-24T01:36:01.306Z,90.00
2018-06-24T01:38:29.504Z,90.20
2018-06-24T01:40:58.717Z,90.50
2018-06-24T01:43:26.924Z,90.60
2018-06-24T01:45:55.131Z,90.80
2018-06-24T01:48:23.349Z,91.00
2018-06-24T01:50:51.548Z,91.10
2018-06-24T01:53:19.741Z,91.20
2018-06-24T01:55:47.992Z,91.30
2018-06-24T01:58:16.301Z,91.40
2018-06-24T02:00:44.493Z,91.50
2018-06-24T02:03:12.684Z,91.70
2018-06-24T02:05:40.896Z,91.90
2018-06-24T02:08:09.080Z,92.00
2018-06-24T02:10:37.272Z,92.10
2018-06-24T02:13:05.600Z,92.30
2018-06-24T02:15:33.874Z,92.40
2018-06-24T02:18:02.082Z,92.50
2018-06-24T02:20:30.288Z,92.70
2018-06-24T02:22:58.497Z,92.70
2018-06-24T02:25:26.920Z,92.80
2018-06-24T02:27:55.489Z,92.90
2018-06-24T02:30:23.678Z,93.00
2018-06-24T02:32:51.890Z,93.10
2018-06-24T02:35:20.080Z,93.10
2018-06-24T02:37:48.295Z,93.20
2018-06-24T02:40:16.483Z,93.20
2018-06-24T02:42:44.729Z,93.20
2018-06-24T02:45:12.975Z,93.20
2018-06-24T02:47:41.192Z,93.10
2018-06-24T02:50:09.381Z,93.10
2018-06-24T02:52:37.614Z,93.10
2018-06-24T02:57:33.745Z,93.10
2018-06-24T03:00:01.992Z,93.10
2018-06-24T03:02:30.212Z,93.20
2018-06-24T03:04:58.408Z,93.20
2018-06-24T03:07:26.644Z,93.20
2018-06-24T03:09:54.852Z,93.20
2018-06-24T03:12:23.060Z,93.10
2018-06-24T03:14:51.260Z,93.10
2018-06-24T03:17:20.483Z,93.00
2018-06-24T03:19:48.677Z,93.00
2018-06-24T03:22:16.876Z,93.00
2018-06-24T03:24:45.074Z,93.00
2018-06-24T03:27:13.312Z,93.00
2018-06-24T03:29:41.536Z,93.00
2018-06-24T03:32:09.768Z,92.90
2018-06-24T03:34:37.961Z,93.00
2018-06-24T03:37:06.189Z,93.00
2018-06-24T03:39:34.420Z,93.00
2018-06-24T03:42:02.616Z,93.00
2018-06-24T03:44:30.864Z,93.00
2018-06-24T03:46:59.067Z,93.10
2018-06-24T03:49:28.164Z,93.30
2018-06-24T03:51:56.625Z,92.80
2018-06-24T03:54:24.844Z,92.80
2018-06-24T03:56:53.036Z,92.70
2018-06-24T03:59:21.243Z,92.60
2018-06-24T04:01:49.436Z,92.50
2018-06-24T04:04:17.632Z,92.40
2018-06-24T04:06:45.835Z,92.40
2018-06-24T04:09:14.052Z,92.40
2018-06-24T04:11:42.267Z,92.40
2018-06-24T04:14:11.225Z,92.40
2018-06-24T04:16:39.432Z,92.40
2018-06-24T04:19:07.676Z,92.40
2018-06-24T04:21:35.863Z,92.40
2018-06-24T04:24:04.090Z,92.30
2018-06-24T04:29:00.289Z,92.40
2018-06-24T04:31:28.479Z,92.40
2018-06-24T04:33:56.708Z,92.30
2018-06-24T04:36:24.912Z,92.30
2018-06-24T04:38:53.156Z,92.20
2018-06-24T04:41:21.372Z,92.20
2018-06-24T04:43:49.584Z,92.20
2018-06-24T04:46:17.805Z,92.20
2018-06-24T04:48:46.004Z,92.20
2018-06-24T04:51:14.216Z,92.20
2018-06-24T04:53:42.428Z,92.20
2018-06-24T04:56:10.628Z,92.40
2018-06-24T04:58:38.823Z,91.90
2018-06-24T05:01:07.037Z,91.80
2018-06-24T05:03:35.224Z,91.70
2018-06-24T05:06:03.441Z,91.70
2018-06-24T05:08:31.653Z,91.90
2018-06-24T05:10:59.866Z,91.50
2018-06-24T05:13:28.077Z,91.40
2018-06-24T05:15:56.293Z,91.20
2018-06-24T05:18:24.488Z,91.10
2018-06-24T05:20:52.705Z,91.10
2018-06-24T05:23:20.920Z,91.00
2018-06-24T05:25:49.133Z,90.90
2018-06-24T05:28:17.337Z,90.80
2018-06-24T05:30:45.537Z,90.60
2018-06-24T05:33:13.762Z,90.40
2018-06-24T05:35:41.965Z,90.10
2018-06-24T05:38:10.168Z,89.50
2018-06-24T05:40:38.921Z,88.50
2018-06-24T05:43:07.138Z,87.70
2018-06-24T05:45:35.345Z,87.00
2018-06-24T05:48:03.596Z,86.50
2018-06-24T05:50:31.963Z,86.20
2018-06-24T05:53:00.144Z,85.10
2018-06-24T05:55:28.360Z,84.10
2018-06-24T05:57:56.721Z,83.30
2018-06-24T06:00:24.927Z,82.60
2018-06-24T06:02:53.240Z,81.60
2018-06-24T06:05:21.647Z,80.70
2018-06-24T06:07:49.841Z,80.00
2018-06-24T06:10:18.094Z,79.10
2018-06-24T06:12:46.233Z,78.10
2018-06-24T06:17:42.397Z,76.40
2018-06-24T06:22:38.998Z,74.80
2018-06-24T06:25:07.656Z,74.60
2018-06-24T06:27:35.847Z,74.90
2018-06-24T06:32:32.484Z,74.50
2018-06-24T06:35:00.694Z,73.60
2018-06-24T06:37:28.904Z,73.00
2018-06-24T06:39:57.092Z,72.60
2018-06-24T06:42:25.329Z,72.40
2018-06-24T06:44:53.612Z,72.70
2018-06-24T06:47:21.913Z,72.10
2018-06-24T06:49:50.127Z,72.50
2018-06-24T06:52:18.343Z,71.90
2018-06-24T06:54:46.548Z,72.30
2018-06-24T06:57:14.744Z,71.90
2018-06-24T06:59:42.968Z,71.80
2018-06-24T07:02:11.188Z,71.10
2018-06-24T07:04:39.432Z,70.60
2018-06-24T07:07:07.641Z,70.40
2018-06-24T07:09:35.836Z,70.10
2018-06-24T07:12:04.068Z,69.90
2018-06-24T07:14:32.300Z,69.70
2018-06-24T07:17:00.489Z,69.70
2018-06-24T07:19:28.680Z,69.80
2018-06-24T07:21:56.943Z,69.50
2018-06-24T07:24:25.293Z,69.70
2018-06-24T07:26:53.502Z,69.30
2018-06-24T07:29:21.699Z,69.70
2018-06-24T07:31:49.958Z,69.10
2018-06-24T07:34:18.131Z,69.30
2018-06-24T07:36:46.385Z,69.00
2018-06-24T07:39:14.639Z,69.10
2018-06-24T07:41:42.826Z,68.90
2018-06-24T07:44:11.029Z,69.00
2018-06-24T07:46:39.241Z,69.10
2018-06-24T07:49:07.567Z,68.80
2018-06-24T07:51:35.816Z,68.90
2018-06-24T07:54:04.032Z,68.40
2018-06-24T07:56:32.429Z,68.20
2018-06-24T07:59:00.600Z,68.60
2018-06-24T08:01:28.811Z,68.80
2018-06-24T08:03:57.093Z,68.50
2018-06-24T08:06:25.299Z,68.00
2018-06-24T08:08:53.501Z,67.80
2018-06-24T08:11:28.420Z,68.10
2018-06-24T08:13:56.621Z,68.70
2018-06-24T08:16:24.836Z,68.80
2018-06-24T08:18:53.541Z,68.60
2018-06-24T08:21:21.744Z,68.70
2018-06-24T08:23:49.960Z,68.10
2018-06-24T08:26:18.177Z,67.80
2018-06-24T08:28:46.395Z,67.50
2018-06-24T08:31:14.596Z,66.30
2018-06-24T08:33:42.787Z,65.70
2018-06-24T08:36:10.999Z,65.00
2018-06-24T08:38:39.209Z,64.90
2018-06-24T08:41:07.433Z,64.70
2018-06-24T08:43:35.644Z,65.00
2018-06-24T08:46:03.944Z,64.80
2018-06-24T08:48:32.153Z,61.70
2018-06-24T08:51:00.417Z,59.50
2018-06-24T08:53:28.611Z,58.10
2018-06-24T08:55:56.809Z,56.90
2018-06-24T08:58:25.035Z,56.00
2018-06-24T09:00:53.260Z,54.40
2018-06-24T09:03:21.467Z,51.20
2018-06-24T09:05:49.676Z,49.80
2018-06-24T09:08:17.900Z,49.10
2018-06-24T09:10:46.124Z,49.20
2018-06-24T09:13:14.349Z,49.50
2018-06-24T09:15:42.672Z,50.30
2018-06-24T09:18:10.844Z,50.20
2018-06-24T09:20:39.048Z,50.10
2018-06-24T09:23:07.351Z,49.60
2018-06-24T09:25:35.811Z,48.80
2018-06-24T09:28:04.121Z,48.60
2018-06-24T09:30:32.306Z,49.00
2018-06-24T09:33:00.592Z,49.00
2018-06-24T09:35:28.797Z,49.00
2018-06-24T09:37:57.004Z,48.50
2018-06-24T09:40:25.212Z,48.50
2018-06-24T09:42:53.428Z,48.20
2018-06-24T09:45:21.635Z,46.90
2018-06-24T09:47:49.820Z,46.10
2018-06-24T09:50:18.044Z,45.30
2018-06-24T09:52:46.296Z,44.30
2018-06-24T09:55:14.456Z,44.40
2018-06-24T09:57:42.656Z,43.60
2018-06-24T10:00:15.952Z,43.80
2018-06-24T10:02:44.173Z,43.60
2018-06-24T10:05:12.388Z,42.60
2018-06-24T10:07:40.585Z,42.60
2018-06-24T10:10:09.692Z,41.90
2018-06-24T10:12:37.891Z,42.50
2018-06-24T10:15:06.099Z,41.90
2018-06-24T10:17:34.376Z,42.20
2018-06-24T10:20:02.540Z,42.10
2018-06-24T10:22:30.752Z,41.90
2018-06-24T10:24:59.005Z,42.10
2018-06-24T10:27:27.192Z,42.90
2018-06-24T10:29:55.414Z,43.40
2018-06-24T10:32:23.688Z,42.80
2018-06-24T10:34:52.021Z,42.80
2018-06-24T10:39:48.180Z,42.50
2018-06-24T10:42:16.518Z,42.60
2018-06-24T10:44:44.736Z,42.80
2018-06-24T10:49:41.016Z,42.50
2018-06-24T10:54:37.209Z,41.70
2018-06-24T10:57:05.424Z,42.10
2018-06-24T10:59:33.641Z,41.70
2018-06-24T11:02:01.901Z,42.00
2018-06-24T11:04:30.077Z,41.30
2018-06-24T11:06:58.343Z,41.40
2018-06-24T11:09:26.729Z,41.10
2018-06-24T11:11:54.942Z,41.20
2018-06-24T11:14:23.205Z,41.10
2018-06-24T11:16:51.413Z,40.80
2018-06-24T11:19:19.613Z,40.90
2018-06-24T11:21:47.847Z,40.80
2018-06-24T11:24:16.076Z,40.60
2018-06-24T11:26:44.304Z,41.10
2018-06-24T11:29:12.500Z,40.90
2018-06-24T11:31:40.725Z,41.30
2018-06-24T11:34:08.948Z,41.40
2018-06-24T11:36:37.151Z,40.80
2018-06-24T11:39:07.812Z,41.00
2018-06-24T11:41:36.025Z,40.80
2018-06-24T11:44:04.246Z,40.60
2018-06-24T11:46:32.465Z,40.70
2018-06-24T11:49:00.703Z,40.30
2018-06-24T11:51:28.896Z,40.50
2018-06-24T11:53:57.117Z,40.20
2018-06-24T11:56:25.332Z,40.10
2018-06-24T11:58:53.548Z,39.90
2018-06-24T12:01:21.784Z,39.40
2018-06-24T12:03:50.005Z,39.00
2018-06-24T12:06:18.224Z,38.30
2018-06-24T12:08:46.451Z,38.30
2018-06-24T12:11:14.820Z,38.20
2018-06-24T12:13:43.196Z,37.80
2018-06-24T12:16:11.417Z,37.60
2018-06-24T12:18:39.634Z,37.20
2018-06-24T12:21:07.844Z,37.40
2018-06-24T12:23:36.072Z,37.60
2018-06-24T12:26:04.294Z,36.30
2018-06-24T12:28:32.517Z,36.70
2018-06-24T12:31:00.743Z,36.60
2018-06-24T12:33:29.060Z,37.40
2018-06-24T12:35:57.257Z,38.20
2018-06-24T12:38:25.471Z,38.70
2018-06-24T12:40:53.678Z,38.40
2018-06-24T12:43:21.925Z,38.90
2018-06-24T12:48:18.056Z,39.50
2018-06-24T12:50:46.252Z,39.70
2018-06-24T12:53:14.485Z,39.30
2018-06-24T12:55:42.795Z,39.00
2018-06-24T12:58:11.031Z,38.70
2018-06-24T13:00:39.655Z,39.30
2018-06-24T13:03:07.428Z,39.80
2018-06-24T13:05:35.687Z,39.70
2018-06-24T13:08:04.815Z,39.80
2018-06-24T13:10:33.024Z,39.70
2018-06-24T13:13:01.240Z,40.30
2018-06-24T13:15:29.444Z,40.60
2018-06-24T13:17:57.685Z,40.90
2018-06-24T13:20:25.901Z,40.00
2018-06-24T13:22:54.092Z,39.00
2018-06-24T13:25:22.324Z,38.90
2018-06-24T13:27:50.529Z,39.30
2018-06-24T13:30:18.760Z,39.70
2018-06-24T13:32:46.973Z,40.00
2018-06-24T13:35:15.220Z,40.70
2018-06-24T13:37:43.424Z,40.60
2018-06-24T13:40:11.712Z,40.60
2018-06-24T13:42:40.292Z,41.00
2018-06-24T13:45:09.649Z,41.50
2018-06-24T13:47:37.843Z,41.60
2018-06-24T13:50:06.081Z,41.20
2018-06-24T13:52:34.292Z,40.80
2018-06-24T13:55:02.497Z,40.00
2018-06-24T13:57:30.686Z,39.50
2018-06-24T13:59:58.896Z,39.20
2018-06-24T14:02:27.100Z,38.60
2018-06-24T14:04:55.643Z,38.90
2018-06-24T14:07:23.849Z,39.10
2018-06-24T14:09:52.049Z,39.00
2018-06-24T14:12:20.268Z,38.80
2018-06-24T14:14:48.498Z,38.90
2018-06-24T14:17:16.700Z,39.10
2018-06-24T14:19:44.911Z,39.50
2018-06-24T14:22:13.117Z,39.90
2018-06-24T14:24:41.348Z,40.40
2018-06-24T14:27:09.544Z,40.80
2018-06-24T14:29:37.736Z,40.90
2018-06-24T14:32:06.333Z,40.90
2018-06-24T14:34:34.632Z,41.20
2018-06-24T14:37:03.056Z,41.20
2018-06-24T14:39:31.279Z,40.90
2018-06-24T14:41:59.488Z,40.80
2018-06-24T14:44:27.692Z,40.80
2018-06-24T14:46:55.889Z,41.10
2018-06-24T14:49:24.184Z,40.90
2018-06-24T14:51:52.376Z,41.00
2018-06-24T14:54:20.593Z,41.10
2018-06-24T14:56:48.850Z,41.20
2018-06-24T14:59:17.049Z,41.40
2018-06-24T15:01:45.335Z,41.60
2018-06-24T15:04:13.473Z,42.00
2018-06-24T15:06:41.682Z,41.90
2018-06-24T15:09:11.421Z,41.80
2018-06-24T15:11:39.797Z,41.20
2018-06-24T15:14:08.828Z,40.90
2018-06-24T15:16:37.412Z,41.40
2018-06-24T15:19:06.115Z,41.20
2018-06-24T15:21:34.321Z,40.90
2018-06-24T15:24:02.521Z,40.60
2018-06-24T15:26:30.752Z,40.20
2018-06-24T15:28:58.960Z,40.20
2018-06-24T15:31:27.245Z,40.40
2018-06-24T15:33:55.465Z,40.60
2018-06-24T15:36:23.668Z,41.10
2018-06-24T15:38:51.875Z,41.60
2018-06-24T15:41:20.112Z,42.20
2018-06-24T15:43:48.397Z,42.80
2018-06-24T15:46:16.624Z,43.50
2018-06-24T15:48:45.765Z,43.40
2018-06-24T15:51:15.853Z,42.60
2018-06-24T15:53:44.024Z,42.40
2018-06-24T15:56:12.319Z,42.20
2018-06-24T15:58:40.528Z,41.90
2018-06-24T16:01:08.752Z,41.70
2018-06-24T16:03:37.255Z,41.70
2018-06-24T16:06:06.049Z,41.50
2018-06-24T16:08:34.247Z,41.40
2018-06-24T16:11:02.492Z,41.20
2018-06-24T16:13:30.772Z,41.00
2018-06-24T16:15:59.024Z,40.80
2018-06-24T16:18:27.204Z,40.90
2018-06-24T16:23:23.391Z,40.20
2018-06-24T16:25:51.591Z,40.10
2018-06-24T16:28:19.866Z,39.30
2018-06-24T16:30:48.070Z,38.50
2018-06-24T16:33:16.286Z,37.90
2018-06-24T16:35:44.540Z,37.50
2018-06-24T16:38:12.983Z,36.50
2018-06-24T16:40:41.192Z,36.20
2018-06-24T16:43:09.400Z,36.80
2018-06-24T16:45:37.625Z,36.70
2018-06-24T16:48:05.865Z,37.00
2018-06-24T16:50:34.089Z,37.70
2018-06-24T16:53:02.274Z,39.00
2018-06-24T16:55:30.475Z,39.00
2018-06-24T16:57:58.705Z,39.50
2018-06-24T17:00:27.007Z,40.20
2018-06-24T17:02:55.208Z,40.80
2018-06-24T17:05:24.399Z,41.60
2018-06-24T17:07:52.609Z,42.30
2018-06-24T17:10:20.804Z,43.10
2018-06-24T17:12:49.020Z,43.60
2018-06-24T17:15:17.221Z,44.00
2018-06-24T17:17:45.495Z,44.40
2018-06-24T17:20:13.681Z,44.80
2018-06-24T17:22:41.888Z,45.10
2018-06-24T17:25:10.113Z,45.50
2018-06-24T17:27:38.324Z,45.80
2018-06-24T17:30:06.661Z,46.00
2018-06-24T17:35:02.941Z,46.10
2018-06-24T17:37:31.184Z,46.00
2018-06-24T17:40:00.046Z,45.90
2018-06-24T17:42:28.248Z,46.00
2018-06-24T17:44:56.456Z,46.20
2018-06-24T17:47:24.870Z,46.40
2018-06-24T17:49:53.086Z,46.80
2018-06-24T17:52:21.328Z,46.90
2018-06-24T17:54:49.507Z,47.20
2018-06-24T17:57:17.736Z,47.50
2018-06-24T17:59:46.748Z,47.80
2018-06-24T18:02:14.952Z,48.10
2018-06-24T18:04:43.164Z,48.40
2018-06-24T18:07:11.388Z,48.70
2018-06-24T18:09:39.585Z,49.10
2018-06-24T18:14:36.134Z,49.80
2018-06-24T18:17:04.364Z,50.10
2018-06-24T18:19:33.678Z,50.40
2018-06-24T18:22:02.786Z,50.70
2018-06-24T18:24:30.996Z,51.00
2018-06-24T18:26:59.245Z,51.40
2018-06-24T18:29:27.464Z,51.80
2018-06-24T18:31:55.676Z,51.90
2018-06-24T18:34:23.907Z,52.20
2018-06-24T18:36:52.130Z,52.40
2018-06-24T18:39:20.320Z,52.70
2018-06-24T18:41:48.887Z,53.00
2018-06-24T18:44:17.563Z,53.20
2018-06-24T18:46:46.303Z,53.30
2018-06-24T18:49:14.589Z,53.70
2018-06-24T18:51:42.869Z,53.80
2018-06-24T18:54:11.068Z,53.80
2018-06-24T18:56:39.304Z,53.90
2018-06-24T18:59:07.512Z,54.00
2018-06-24T19:04:03.983Z,54.30
2018-06-24T19:06:32.298Z,54.40
2018-06-24T19:09:00.505Z,54.50
2018-06-24T19:11:28.740Z,54.60
2018-06-24T19:13:57.174Z,54.70
2018-06-24T19:16:25.433Z,54.90
2018-06-24T19:18:53.771Z,55.10
2018-06-24T19:21:21.893Z,55.30
2018-06-24T19:23:50.153Z,55.50
2018-06-24T19:26:18.363Z,55.70
2018-06-24T19:28:46.593Z,55.90
2018-06-24T19:31:14.807Z,56.10
2018-06-24T19:33:43.013Z,56.20
2018-06-24T19:36:11.280Z,56.40
2018-06-24T19:38:39.488Z,56.50
2018-06-24T19:41:07.726Z,56.60
2018-06-24T19:43:35.956Z,56.90
2018-06-24T19:46:04.176Z,57.00
2018-06-24T19:48:32.412Z,57.10
2018-06-24T19:51:00.621Z,57.60
2018-06-24T19:53:28.840Z,57.20
2018-06-24T19:55:57.230Z,57.20
2018-06-24T19:58:25.441Z,57.20
2018-06-24T20:00:53.651Z,57.30
2018-06-24T20:03:21.877Z,57.30
2018-06-24T20:05:50.101Z,57.40
2018-06-24T20:08:18.318Z,57.40
2018-06-24T20:10:46.513Z,57.50
2018-06-24T20:13:14.736Z,57.60
2018-06-24T20:15:42.947Z,57.60
2018-06-24T20:18:11.155Z,57.70
2018-06-24T20:20:39.449Z,57.90
2018-06-24T20:23:07.700Z,58.00
2018-06-24T20:25:35.887Z,58.20
2018-06-24T20:28:04.121Z,58.40
2018-06-24T20:30:32.337Z,58.50
2018-06-24T20:33:00.544Z,58.70
2018-06-24T20:35:28.800Z,58.80
2018-06-24T20:37:57.023Z,58.90
2018-06-24T20:40:25.241Z,59.00
2018-06-24T20:42:53.461Z,59.10
2018-06-24T20:45:21.694Z,59.20
2018-06-24T20:47:49.896Z,59.30
2018-06-24T20:50:18.200Z,59.40
2018-06-24T20:52:46.347Z,59.60
2018-06-24T20:55:14.645Z,60.40
2018-06-24T20:57:43.377Z,59.80
2018-06-24T21:00:11.631Z,59.90
2018-06-24T21:02:39.844Z,60.10
2018-06-24T21:05:08.028Z,60.10
2018-06-24T21:07:36.251Z,60.20
2018-06-24T21:10:04.451Z,60.30
2018-06-24T21:12:32.675Z,60.50
2018-06-24T21:15:00.876Z,60.50
2018-06-24T21:17:29.073Z,60.60
2018-06-24T21:19:57.268Z,60.60
2018-06-24T21:22:25.515Z,60.70
2018-06-24T21:24:54.653Z,60.80
2018-06-24T21:27:22.867Z,61.00
2018-06-24T21:29:51.079Z,60.90
2018-06-24T21:32:19.286Z,60.70
2018-06-24T21:34:47.528Z,60.50
2018-06-24T21:37:15.750Z,60.30
2018-06-24T21:39:43.989Z,60.20
2018-06-24T21:42:12.193Z,60.20
2018-06-24T21:44:40.454Z,60.40
2018-06-24T21:47:08.660Z,60.50
2018-06-24T21:49:36.964Z,60.50
2018-06-24T21:52:05.913Z,60.70
2018-06-24T21:54:34.111Z,60.90
2018-06-24T21:57:02.317Z,61.20
2018-06-24T21:59:30.579Z,61.50
2018-06-24T22:01:58.786Z,61.60
2018-06-24T22:04:27.029Z,61.90
2018-06-24T22:06:55.224Z,62.20
2018-06-24T22:09:23.404Z,62.20
2018-06-24T22:11:51.604Z,62.40
2018-06-24T22:14:19.837Z,62.50
2018-06-24T22:16:48.024Z,62.90
2018-06-24T22:19:16.268Z,63.10
2018-06-24T22:21:44.468Z,63.40
2018-06-24T22:24:12.777Z,63.50
2018-06-24T22:26:40.992Z,63.60
2018-06-24T22:29:09.213Z,63.60
2018-06-24T22:31:37.445Z,64.30
2018-06-24T22:34:05.645Z,63.60
2018-06-24T22:36:33.918Z,63.50
2018-06-24T22:39:02.075Z,63.60
2018-06-24T22:41:30.280Z,63.70
2018-06-24T22:43:58.493Z,63.80
2018-06-24T22:46:26.713Z,63.80
2018-06-24T22:48:55.009Z,64.00
2018-06-24T22:51:23.235Z,64.00
2018-06-24T22:53:51.483Z,64.00
2018-06-24T22:56:19.685Z,64.00
2018-06-24T22:58:59.252Z,64.00
2018-06-24T23:01:27.464Z,64.10
2018-06-24T23:03:55.745Z,64.20
2018-06-24T23:06:23.993Z,64.30
2018-06-24T23:08:52.195Z,64.30
2018-06-24T23:11:20.640Z,64.50
2018-06-24T23:13:48.833Z,64.70
2018-06-24T23:16:17.056Z,64.80
2018-06-24T23:18:45.240Z,64.90
2018-06-24T23:21:13.452Z,65.10
2018-06-24T23:23:41.636Z,65.20
2018-06-24T23:26:10.422Z,65.30
2018-06-24T23:28:38.640Z,65.40
2018-06-24T23:31:07.156Z,65.70
2018-06-24T23:33:35.366Z,65.80
2018-06-24T23:36:03.577Z,66.00
2018-06-24T23:38:31.808Z,66.20
2018-06-24T23:41:00.000Z,66.20
2018-06-24T23:43:28.224Z,66.30
2018-06-24T23:45:56.444Z,66.50
2018-06-24T23:48:24.672Z,66.60
2018-06-24T23:50:52.888Z,66.60
2018-06-24T23:53:21.084Z,66.70
2018-06-24T23:55:49.311Z,66.80
2018-06-24T23:58:17.504Z,67.10
